Aérodrome :
LOGIN :

S'inscrire | Disclaimer

   EN    FR    IT 

 










Légende :    VFR   VFR Marginal   IFR   IFR Intensif   IFR Très Intensif
Visi : 
Plafond : 
>= 8 km
>= 3000ft
5 à 8 km
1000 à 3000 ft
1500m à 5 km
500 à 1000 ft
800 à 1500m
200 à 500 ft
< 800m
< 200 ft
Symboles :   Orages  Brouillard  Fortes neiges  Fortes précipitations  Vent > 20 kt
SIGMETs :   Divers  Orages  Givrage  Turbulence  Onde Orograph.  Cendres Volcan.







- Altitude de l'aérodrome : 1084 ft
- Code IATA : EPL
- Voir les cartes d'approche


LFSG - Épinal-Mirecourt

DERNIER METAR :
  • 181730Z AUTO 26015KT 9999 -RA FEW019/// BKN033/// OVC040/// ///CB 07/05 Q1007

METARs EXPIRÉS :
  • 181700Z AUTO 24012KT 9999 RA FEW011/// SCT018/// BKN026/// ///CB 07/06 Q1006
  • 181630Z AUTO 23009KT 9999 RA SCT023/// BKN035/// BKN046/// ///TCU 07/06 Q1006
  • 181600Z AUTO 23013KT 9999 RA BKN015/// BKN022/// BKN036/// ///CB 07/06 Q1006
  • 181530Z AUTO 25015KT 9000 RA FEW007/// SCT018/// BKN029/// ///CB 07/06 Q1006
  • 181500Z AUTO 22017KT 5000 RA BR BKN008/// OVC014/// ///CB 07/06 Q1005

TAF N/A
Pas de NOTAMs connus pour ce terrain.
1 SIGMET publié pour la FIR Reims (LFEE) :
 
Turbulence forte
LFEE SIGMET 8 VALID 181700/182100 LFPW
LFEE REIMS FIR/UIR SEV TURB FCST WI N4845 E00800 - N4730 E00730 - N4700 E00645 - N4700 E00630 - N4845 E00700 - N4845 E00800 SFC/FL070 STNR NC=



MET'MAP, la Météo Aéronautique d'un coup d'oeil ! - Copyright ORBIFLY Décembre 2007 - Disclaimer

ORBIFLY MET'MAP TEAM :

Programmation & Développement : Alexandra Zaïnal
Conception & Développement : Baudouin d'Aumeries
Co-Programmation & Développement : Marc-Olivier Méhu
Soutien technique & logistique : Manuel Goepfert

Contact : metmap@orbifly.com




SOURCES & CREDITS :

   NOAA